sensor_id;sensor_type;location;lat;lon;timestamp;P1;durP1;ratioP1;P2;durP2;ratioP2
48733;SDS011;34530;52.084;5.146;2023-02-18T00:00:25;9.48;;;4.32;;
48733;SDS011;34530;52.084;5.146;2023-02-18T00:02:51;11.90;;;4.20;;
48733;SDS011;34530;52.084;5.146;2023-02-18T00:05:19;11.73;;;4.20;;
48733;SDS011;34530;52.084;5.146;2023-02-18T00:07:46;8.75;;;3.85;;
48733;SDS011;34530;52.084;5.146;2023-02-18T00:10:12;12.25;;;4.47;;
48733;SDS011;34530;52.084;5.146;2023-02-18T00:12:39;11.45;;;4.88;;
48733;SDS011;34530;52.084;5.146;2023-02-18T00:15:05;9.55;;;4.40;;
48733;SDS011;34530;52.084;5.146;2023-02-18T00:17:31;11.70;;;4.40;;
48733;SDS011;34530;52.084;5.146;2023-02-18T00:19:57;10.40;;;4.25;;
48733;SDS011;34530;52.084;5.146;2023-02-18T00:22:23;11.57;;;4.70;;
48733;SDS011;34530;52.084;5.146;2023-02-18T00:24:48;10.70;;;4.53;;
48733;SDS011;34530;52.084;5.146;2023-02-18T00:27:14;13.82;;;4.63;;
48733;SDS011;34530;52.084;5.146;2023-02-18T00:29:40;12.00;;;4.88;;
48733;SDS011;34530;52.084;5.146;2023-02-18T00:32:06;12.35;;;5.57;;
48733;SDS011;34530;52.084;5.146;2023-02-18T00:34:31;13.52;;;5.32;;
48733;SDS011;34530;52.084;5.146;2023-02-18T00:36:57;9.27;;;5.05;;
48733;SDS011;34530;52.084;5.146;2023-02-18T00:39:23;12.48;;;6.03;;
48733;SDS011;34530;52.084;5.146;2023-02-18T00:41:51;15.63;;;6.20;;
48733;SDS011;34530;52.084;5.146;2023-02-18T00:44:17;10.63;;;5.55;;
48733;SDS011;34530;52.084;5.146;2023-02-18T00:46:42;14.95;;;6.68;;
48733;SDS011;34530;52.084;5.146;2023-02-18T00:49:08;14.82;;;6.07;;
48733;SDS011;34530;52.084;5.146;2023-02-18T00:51:34;12.50;;;6.15;;
48733;SDS011;34530;52.084;5.146;2023-02-18T00:54:00;17.23;;;7.13;;
48733;SDS011;34530;52.084;5.146;2023-02-18T00:56:26;14.73;;;6.60;;
48733;SDS011;34530;52.084;5.146;2023-02-18T00:58:51;13.57;;;6.65;;
48733;SDS011;34530;52.084;5.146;2023-02-18T01:01:17;13.98;;;7.25;;
48733;SDS011;34530;52.084;5.146;2023-02-18T01:03:44;13.43;;;7.07;;
48733;SDS011;34530;52.084;5.146;2023-02-18T01:06:10;12.13;;;7.47;;
48733;SDS011;34530;52.084;5.146;2023-02-18T01:08:37;15.32;;;7.38;;
48733;SDS011;34530;52.084;5.146;2023-02-18T01:11:04;12.55;;;7.30;;
48733;SDS011;34530;52.084;5.146;2023-02-18T01:13:30;15.75;;;8.15;;
48733;SDS011;34530;52.084;5.146;2023-02-18T01:15:56;12.57;;;6.82;;
48733;SDS011;34530;52.084;5.146;2023-02-18T01:18:23;18.92;;;8.00;;
48733;SDS011;34530;52.084;5.146;2023-02-18T01:20:50;14.85;;;6.93;;
48733;SDS011;34530;52.084;5.146;2023-02-18T01:23:15;14.77;;;7.68;;
48733;SDS011;34530;52.084;5.146;2023-02-18T01:25:42;13.80;;;7.75;;
48733;SDS011;34530;52.084;5.146;2023-02-18T01:28:10;17.60;;;7.75;;
48733;SDS011;34530;52.084;5.146;2023-02-18T01:30:38;14.75;;;7.45;;
48733;SDS011;34530;52.084;5.146;2023-02-18T01:33:05;14.77;;;7.38;;
48733;SDS011;34530;52.084;5.146;2023-02-18T01:35:31;15.30;;;7.78;;
48733;SDS011;34530;52.084;5.146;2023-02-18T01:37:56;13.57;;;7.60;;
48733;SDS011;34530;52.084;5.146;2023-02-18T01:40:23;15.95;;;8.38;;
48733;SDS011;34530;52.084;5.146;2023-02-18T01:42:51;14.07;;;7.28;;
48733;SDS011;34530;52.084;5.146;2023-02-18T01:45:35;12.48;;;7.20;;
48733;SDS011;34530;52.084;5.146;2023-02-18T01:48:26;11.75;;;7.50;;
48733;SDS011;34530;52.084;5.146;2023-02-18T01:51:03;14.52;;;7.57;;
48733;SDS011;34530;52.084;5.146;2023-02-18T01:53:52;12.15;;;7.20;;
48733;SDS011;34530;52.084;5.146;2023-02-18T01:56:46;11.98;;;6.70;;
48733;SDS011;34530;52.084;5.146;2023-02-18T01:59:17;12.02;;;7.28;;
48733;SDS011;34530;52.084;5.146;2023-02-18T02:01:49;15.07;;;8.10;;
48733;SDS011;34530;52.084;5.146;2023-02-18T02:04:16;14.63;;;8.55;;
48733;SDS011;34530;52.084;5.146;2023-02-18T02:06:42;12.60;;;8.02;;
48733;SDS011;34530;52.084;5.146;2023-02-18T02:09:09;11.13;;;6.80;;
48733;SDS011;34530;52.084;5.146;2023-02-18T02:11:48;12.65;;;7.75;;
48733;SDS011;34530;52.084;5.146;2023-02-18T02:23:11;13.00;;;8.00;;
48733;SDS011;34530;52.084;5.146;2023-02-18T02:31:32;11.05;;;6.97;;
48733;SDS011;34530;52.084;5.146;2023-02-18T02:37:11;12.13;;;7.93;;
48733;SDS011;34530;52.084;5.146;2023-02-18T02:48:18;12.18;;;7.22;;
48733;SDS011;34530;52.084;5.146;2023-02-18T02:51:00;12.32;;;7.65;;
48733;SDS011;34530;52.084;5.146;2023-02-18T02:53:43;15.73;;;8.93;;
48733;SDS011;34530;52.084;5.146;2023-02-18T02:56:13;12.93;;;7.55;;
48733;SDS011;34530;52.084;5.146;2023-02-18T02:58:43;13.43;;;8.30;;
48733;SDS011;34530;52.084;5.146;2023-02-18T03:17:59;14.10;;;7.95;;
48733;SDS011;34530;52.084;5.146;2023-02-18T03:20:30;12.57;;;8.15;;
48733;SDS011;34530;52.084;5.146;2023-02-18T03:23:02;13.95;;;8.38;;
48733;SDS011;34530;52.084;5.146;2023-02-18T03:25:32;12.57;;;8.75;;
48733;SDS011;34530;52.084;5.146;2023-02-18T03:28:06;12.48;;;8.25;;
48733;SDS011;34530;52.084;5.146;2023-02-18T03:30:40;13.15;;;8.57;;
48733;SDS011;34530;52.084;5.146;2023-02-18T03:33:13;11.05;;;8.18;;
48733;SDS011;34530;52.084;5.146;2023-02-18T03:35:42;12.63;;;8.27;;
48733;SDS011;34530;52.084;5.146;2023-02-18T03:38:17;13.43;;;8.43;;
48733;SDS011;34530;52.084;5.146;2023-02-18T03:40:46;11.80;;;9.05;;
48733;SDS011;34530;52.084;5.146;2023-02-18T03:43:11;11.70;;;7.85;;
48733;SDS011;34530;52.084;5.146;2023-02-18T03:45:37;12.30;;;7.55;;
48733;SDS011;34530;52.084;5.146;2023-02-18T03:48:03;13.43;;;7.97;;
48733;SDS011;34530;52.084;5.146;2023-02-18T03:50:29;12.70;;;8.50;;
48733;SDS011;34530;52.084;5.146;2023-02-18T03:52:55;13.15;;;8.20;;
48733;SDS011;34530;52.084;5.146;2023-02-18T03:55:23;13.73;;;8.18;;
48733;SDS011;34530;52.084;5.146;2023-02-18T03:57:49;11.27;;;7.45;;
48733;SDS011;34530;52.084;5.146;2023-02-18T04:00:15;10.73;;;7.57;;
48733;SDS011;34530;52.084;5.146;2023-02-18T04:02:41;11.48;;;7.82;;
48733;SDS011;34530;52.084;5.146;2023-02-18T04:05:06;10.07;;;6.85;;
48733;SDS011;34530;52.084;5.146;2023-02-18T04:07:32;9.70;;;7.15;;
48733;SDS011;34530;52.084;5.146;2023-02-18T04:09:58;9.52;;;6.90;;
48733;SDS011;34530;52.084;5.146;2023-02-18T04:12:24;10.57;;;7.15;;
48733;SDS011;34530;52.084;5.146;2023-02-18T04:14:50;11.70;;;6.93;;
48733;SDS011;34530;52.084;5.146;2023-02-18T04:17:16;9.02;;;6.30;;
48733;SDS011;34530;52.084;5.146;2023-02-18T04:19:41;12.38;;;6.68;;
48733;SDS011;34530;52.084;5.146;2023-02-18T04:22:07;8.77;;;6.20;;
48733;SDS011;34530;52.084;5.146;2023-02-18T04:24:32;9.57;;;5.80;;
48733;SDS011;34530;52.084;5.146;2023-02-18T04:26:58;10.38;;;5.93;;
48733;SDS011;34530;52.084;5.146;2023-02-18T04:29:23;10.77;;;6.55;;
48733;SDS011;34530;52.084;5.146;2023-02-18T04:31:49;9.27;;;6.05;;
48733;SDS011;34530;52.084;5.146;2023-02-18T04:34:15;9.13;;;6.47;;
48733;SDS011;34530;52.084;5.146;2023-02-18T04:36:40;8.40;;;5.78;;
48733;SDS011;34530;52.084;5.146;2023-02-18T04:39:06;7.88;;;5.63;;
48733;SDS011;34530;52.084;5.146;2023-02-18T04:41:31;7.28;;;5.70;;
48733;SDS011;34530;52.084;5.146;2023-02-18T04:43:57;8.32;;;5.47;;
48733;SDS011;34530;52.084;5.146;2023-02-18T04:46:23;6.70;;;5.28;;
48733;SDS011;34530;52.084;5.146;2023-02-18T04:48:49;7.22;;;5.40;;
48733;SDS011;34530;52.084;5.146;2023-02-18T04:51:15;7.03;;;5.20;;
48733;SDS011;34530;52.084;5.146;2023-02-18T04:53:40;7.28;;;5.10;;
48733;SDS011;34530;52.084;5.146;2023-02-18T04:56:06;7.30;;;4.97;;
48733;SDS011;34530;52.084;5.146;2023-02-18T04:58:32;5.88;;;5.05;;
48733;SDS011;34530;52.084;5.146;2023-02-18T05:00:58;6.97;;;4.70;;
48733;SDS011;34530;52.084;5.146;2023-02-18T05:03:24;5.55;;;4.47;;
48733;SDS011;34530;52.084;5.146;2023-02-18T05:05:50;5.60;;;4.57;;
48733;SDS011;34530;52.084;5.146;2023-02-18T05:08:16;4.97;;;4.38;;
48733;SDS011;34530;52.084;5.146;2023-02-18T05:10:43;5.60;;;4.30;;
48733;SDS011;34530;52.084;5.146;2023-02-18T05:13:09;6.15;;;4.90;;
48733;SDS011;34530;52.084;5.146;2023-02-18T05:15:34;6.13;;;4.35;;
48733;SDS011;34530;52.084;5.146;2023-02-18T05:18:00;5.40;;;4.38;;
48733;SDS011;34530;52.084;5.146;2023-02-18T05:20:25;5.43;;;4.22;;
48733;SDS011;34530;52.084;5.146;2023-02-18T05:22:51;6.57;;;4.57;;
48733;SDS011;34530;52.084;5.146;2023-02-18T05:25:17;4.82;;;4.32;;
48733;SDS011;34530;52.084;5.146;2023-02-18T05:27:42;5.32;;;4.30;;
48733;SDS011;34530;52.084;5.146;2023-02-18T05:30:09;5.68;;;3.80;;
48733;SDS011;34530;52.084;5.146;2023-02-18T05:32:35;5.65;;;3.95;;
48733;SDS011;34530;52.084;5.146;2023-02-18T05:35:01;5.97;;;4.18;;
48733;SDS011;34530;52.084;5.146;2023-02-18T05:37:26;6.28;;;3.90;;
48733;SDS011;34530;52.084;5.146;2023-02-18T05:39:52;4.63;;;3.70;;
48733;SDS011;34530;52.084;5.146;2023-02-18T05:42:17;4.20;;;3.72;;
48733;SDS011;34530;52.084;5.146;2023-02-18T05:44:43;5.53;;;4.60;;
48733;SDS011;34530;52.084;5.146;2023-02-18T05:47:10;5.57;;;4.22;;
48733;SDS011;34530;52.084;5.146;2023-02-18T05:49:37;6.28;;;4.38;;
48733;SDS011;34530;52.084;5.146;2023-02-18T05:52:04;5.95;;;4.50;;
48733;SDS011;34530;52.084;5.146;2023-02-18T05:54:30;6.75;;;4.57;;
48733;SDS011;34530;52.084;5.146;2023-02-18T05:56:56;4.65;;;4.13;;
48733;SDS011;34530;52.084;5.146;2023-02-18T05:59:22;5.50;;;4.05;;
48733;SDS011;34530;52.084;5.146;2023-02-18T06:01:48;6.53;;;4.55;;
48733;SDS011;34530;52.084;5.146;2023-02-18T06:04:13;6.00;;;4.65;;
48733;SDS011;34530;52.084;5.146;2023-02-18T06:06:39;6.47;;;4.65;;
48733;SDS011;34530;52.084;5.146;2023-02-18T06:09:06;5.70;;;4.78;;
48733;SDS011;34530;52.084;5.146;2023-02-18T06:11:32;6.80;;;4.68;;
48733;SDS011;34530;52.084;5.146;2023-02-18T06:13:58;5.18;;;4.35;;
48733;SDS011;34530;52.084;5.146;2023-02-18T06:16:23;5.95;;;4.72;;
48733;SDS011;34530;52.084;5.146;2023-02-18T06:18:49;5.40;;;4.00;;
48733;SDS011;34530;52.084;5.146;2023-02-18T06:21:14;4.75;;;3.95;;
48733;SDS011;34530;52.084;5.146;2023-02-18T06:23:40;6.43;;;4.75;;
48733;SDS011;34530;52.084;5.146;2023-02-18T06:26:06;4.57;;;3.80;;
48733;SDS011;34530;52.084;5.146;2023-02-18T06:28:31;4.90;;;4.32;;
48733;SDS011;34530;52.084;5.146;2023-02-18T06:30:57;5.35;;;4.40;;
48733;SDS011;34530;52.084;5.146;2023-02-18T06:33:23;5.70;;;3.92;;
48733;SDS011;34530;52.084;5.146;2023-02-18T06:35:55;5.10;;;4.20;;
48733;SDS011;34530;52.084;5.146;2023-02-18T06:38:25;4.90;;;4.20;;
48733;SDS011;34530;52.084;5.146;2023-02-18T06:40:52;6.25;;;4.15;;
48733;SDS011;34530;52.084;5.146;2023-02-18T06:43:17;5.03;;;4.15;;
48733;SDS011;34530;52.084;5.146;2023-02-18T06:45:44;7.80;;;4.88;;
48733;SDS011;34530;52.084;5.146;2023-02-18T06:48:09;6.45;;;4.20;;
48733;SDS011;34530;52.084;5.146;2023-02-18T06:50:36;5.30;;;4.72;;
48733;SDS011;34530;52.084;5.146;2023-02-18T06:53:01;5.72;;;4.72;;
48733;SDS011;34530;52.084;5.146;2023-02-18T06:55:30;6.40;;;4.65;;
48733;SDS011;34530;52.084;5.146;2023-02-18T06:57:56;7.88;;;4.65;;
48733;SDS011;34530;52.084;5.146;2023-02-18T07:00:21;8.20;;;4.57;;
48733;SDS011;34530;52.084;5.146;2023-02-18T07:02:47;5.82;;;4.60;;
48733;SDS011;34530;52.084;5.146;2023-02-18T07:05:13;7.53;;;5.05;;
48733;SDS011;34530;52.084;5.146;2023-02-18T07:07:38;7.22;;;5.10;;
48733;SDS011;34530;52.084;5.146;2023-02-18T07:10:04;6.57;;;4.85;;
48733;SDS011;34530;52.084;5.146;2023-02-18T07:12:31;6.60;;;5.05;;
48733;SDS011;34530;52.084;5.146;2023-02-18T07:14:57;8.10;;;5.07;;
48733;SDS011;34530;52.084;5.146;2023-02-18T07:17:22;7.13;;;5.30;;
48733;SDS011;34530;52.084;5.146;2023-02-18T07:19:48;6.28;;;5.03;;
48733;SDS011;34530;52.084;5.146;2023-02-18T07:22:13;7.25;;;5.00;;
48733;SDS011;34530;52.084;5.146;2023-02-18T07:24:39;6.40;;;4.93;;
48733;SDS011;34530;52.084;5.146;2023-02-18T07:27:05;7.30;;;4.78;;
48733;SDS011;34530;52.084;5.146;2023-02-18T07:29:31;7.70;;;4.68;;
48733;SDS011;34530;52.084;5.146;2023-02-18T07:31:56;7.53;;;4.85;;
48733;SDS011;34530;52.084;5.146;2023-02-18T07:34:22;6.53;;;4.47;;
48733;SDS011;34530;52.084;5.146;2023-02-18T07:36:47;7.40;;;4.65;;
48733;SDS011;34530;52.084;5.146;2023-02-18T07:39:13;8.48;;;4.10;;
48733;SDS011;34530;52.084;5.146;2023-02-18T07:41:39;6.35;;;4.80;;
48733;SDS011;34530;52.084;5.146;2023-02-18T07:44:04;9.70;;;4.72;;
48733;SDS011;34530;52.084;5.146;2023-02-18T07:46:30;7.82;;;4.53;;
48733;SDS011;34530;52.084;5.146;2023-02-18T07:48:56;7.70;;;4.70;;
48733;SDS011;34530;52.084;5.146;2023-02-18T07:51:22;9.20;;;4.78;;
48733;SDS011;34530;52.084;5.146;2023-02-18T07:53:48;6.38;;;4.53;;
48733;SDS011;34530;52.084;5.146;2023-02-18T07:56:14;6.75;;;4.20;;
48733;SDS011;34530;52.084;5.146;2023-02-18T07:58:39;6.45;;;4.03;;
48733;SDS011;34530;52.084;5.146;2023-02-18T08:01:06;10.15;;;4.60;;
48733;SDS011;34530;52.084;5.146;2023-02-18T08:03:33;7.03;;;3.92;;
48733;SDS011;34530;52.084;5.146;2023-02-18T08:05:59;8.57;;;4.18;;
48733;SDS011;34530;52.084;5.146;2023-02-18T08:08:26;7.53;;;4.10;;
48733;SDS011;34530;52.084;5.146;2023-02-18T08:10:54;5.60;;;3.80;;
48733;SDS011;34530;52.084;5.146;2023-02-18T08:13:21;8.82;;;4.22;;
48733;SDS011;34530;52.084;5.146;2023-02-18T08:15:46;8.48;;;4.03;;
48733;SDS011;34530;52.084;5.146;2023-02-18T08:18:16;9.23;;;4.25;;
48733;SDS011;34530;52.084;5.146;2023-02-18T08:20:43;6.82;;;3.92;;
48733;SDS011;34530;52.084;5.146;2023-02-18T08:23:11;9.30;;;3.53;;
48733;SDS011;34530;52.084;5.146;2023-02-18T08:25:37;8.65;;;4.30;;
48733;SDS011;34530;52.084;5.146;2023-02-18T08:28:03;10.05;;;4.07;;
48733;SDS011;34530;52.084;5.146;2023-02-18T08:30:28;7.30;;;3.67;;
48733;SDS011;34530;52.084;5.146;2023-02-18T08:32:54;8.30;;;3.75;;
48733;SDS011;34530;52.084;5.146;2023-02-18T08:35:20;8.18;;;3.78;;
48733;SDS011;34530;52.084;5.146;2023-02-18T08:37:46;13.23;;;4.50;;
48733;SDS011;34530;52.084;5.146;2023-02-18T08:40:11;9.63;;;3.63;;
48733;SDS011;34530;52.084;5.146;2023-02-18T08:42:38;9.20;;;3.92;;
48733;SDS011;34530;52.084;5.146;2023-02-18T08:45:04;8.82;;;3.85;;
48733;SDS011;34530;52.084;5.146;2023-02-18T08:47:30;11.10;;;3.58;;
48733;SDS011;34530;52.084;5.146;2023-02-18T08:49:57;7.85;;;3.67;;
48733;SDS011;34530;52.084;5.146;2023-02-18T08:52:22;8.55;;;3.42;;
48733;SDS011;34530;52.084;5.146;2023-02-18T08:54:48;7.20;;;3.33;;
48733;SDS011;34530;52.084;5.146;2023-02-18T08:57:14;9.68;;;3.50;;
48733;SDS011;34530;52.084;5.146;2023-02-18T08:59:39;10.48;;;3.90;;
48733;SDS011;34530;52.084;5.146;2023-02-18T09:02:05;12.07;;;4.00;;
48733;SDS011;34530;52.084;5.146;2023-02-18T09:04:31;8.43;;;3.55;;
48733;SDS011;34530;52.084;5.146;2023-02-18T09:06:57;12.30;;;3.78;;
48733;SDS011;34530;52.084;5.146;2023-02-18T09:09:22;14.15;;;4.13;;
48733;SDS011;34530;52.084;5.146;2023-02-18T09:11:48;12.80;;;3.38;;
48733;SDS011;34530;52.084;5.146;2023-02-18T09:14:14;9.07;;;3.35;;
48733;SDS011;34530;52.084;5.146;2023-02-18T09:16:40;11.45;;;3.50;;
48733;SDS011;34530;52.084;5.146;2023-02-18T09:19:07;10.30;;;3.33;;
48733;SDS011;34530;52.084;5.146;2023-02-18T09:21:33;9.88;;;3.88;;
48733;SDS011;34530;52.084;5.146;2023-02-18T09:23:59;11.93;;;3.28;;
48733;SDS011;34530;52.084;5.146;2023-02-18T09:26:25;9.93;;;3.60;;
48733;SDS011;34530;52.084;5.146;2023-02-18T09:28:52;8.73;;;2.95;;
48733;SDS011;34530;52.084;5.146;2023-02-18T09:31:19;8.65;;;3.00;;
48733;SDS011;34530;52.084;5.146;2023-02-18T09:33:49;10.45;;;3.63;;
48733;SDS011;34530;52.084;5.146;2023-02-18T09:36:20;10.85;;;3.20;;
48733;SDS011;34530;52.084;5.146;2023-02-18T09:38:46;9.98;;;3.45;;
48733;SDS011;34530;52.084;5.146;2023-02-18T09:41:29;12.27;;;3.38;;
48733;SDS011;34530;52.084;5.146;2023-02-18T09:44:19;8.70;;;3.40;;
48733;SDS011;34530;52.084;5.146;2023-02-18T09:47:37;9.20;;;2.83;;
48733;SDS011;34530;52.084;5.146;2023-02-18T09:50:10;8.20;;;3.10;;
48733;SDS011;34530;52.084;5.146;2023-02-18T09:52:43;7.57;;;2.85;;
48733;SDS011;34530;52.084;5.146;2023-02-18T09:55:19;11.15;;;3.00;;
48733;SDS011;34530;52.084;5.146;2023-02-18T09:57:46;10.65;;;3.47;;
48733;SDS011;34530;52.084;5.146;2023-02-18T10:00:19;9.02;;;3.33;;
48733;SDS011;34530;52.084;5.146;2023-02-18T10:02:56;11.68;;;3.30;;
48733;SDS011;34530;52.084;5.146;2023-02-18T10:05:30;11.75;;;3.03;;
48733;SDS011;34530;52.084;5.146;2023-02-18T10:08:02;10.65;;;3.00;;
48733;SDS011;34530;52.084;5.146;2023-02-18T10:13:02;11.75;;;3.78;;
48733;SDS011;34530;52.084;5.146;2023-02-18T10:15:29;9.32;;;3.03;;
48733;SDS011;34530;52.084;5.146;2023-02-18T10:17:56;9.18;;;2.90;;
48733;SDS011;34530;52.084;5.146;2023-02-18T10:20:25;9.02;;;3.03;;
48733;SDS011;34530;52.084;5.146;2023-02-18T10:22:54;8.05;;;3.03;;
48733;SDS011;34530;52.084;5.146;2023-02-18T10:25:25;9.57;;;3.00;;
48733;SDS011;34530;52.084;5.146;2023-02-18T10:27:52;9.15;;;2.92;;
48733;SDS011;34530;52.084;5.146;2023-02-18T10:32:54;10.35;;;3.70;;
48733;SDS011;34530;52.084;5.146;2023-02-18T10:38:30;10.57;;;2.92;;
48733;SDS011;34530;52.084;5.146;2023-02-18T10:44:05;8.27;;;2.72;;
48733;SDS011;34530;52.084;5.146;2023-02-18T10:46:53;10.45;;;2.90;;
48733;SDS011;34530;52.084;5.146;2023-02-18T10:52:02;11.70;;;3.35;;
48733;SDS011;34530;52.084;5.146;2023-02-18T10:54:47;11.90;;;3.83;;
48733;SDS011;34530;52.084;5.146;2023-02-18T10:57:21;13.15;;;3.47;;
48733;SDS011;34530;52.084;5.146;2023-02-18T11:00:01;13.40;;;3.83;;
48733;SDS011;34530;52.084;5.146;2023-02-18T11:02:59;8.35;;;2.53;;
48733;SDS011;34530;52.084;5.146;2023-02-18T11:05:47;11.90;;;3.65;;
48733;SDS011;34530;52.084;5.146;2023-02-18T11:08:17;14.35;;;3.50;;
48733;SDS011;34530;52.084;5.146;2023-02-18T11:10:46;8.98;;;3.00;;
48733;SDS011;34530;52.084;5.146;2023-02-18T11:13:14;11.85;;;3.50;;
48733;SDS011;34530;52.084;5.146;2023-02-18T11:16:00;10.80;;;3.35;;
48733;SDS011;34530;52.084;5.146;2023-02-18T11:18:31;10.30;;;2.92;;
48733;SDS011;34530;52.084;5.146;2023-02-18T11:21:03;10.52;;;3.15;;
48733;SDS011;34530;52.084;5.146;2023-02-18T11:23:30;9.38;;;2.90;;
48733;SDS011;34530;52.084;5.146;2023-02-18T11:26:10;7.88;;;2.67;;
48733;SDS011;34530;52.084;5.146;2023-02-18T11:31:54;8.40;;;3.15;;
48733;SDS011;34530;52.084;5.146;2023-02-18T11:34:21;12.50;;;3.05;;
48733;SDS011;34530;52.084;5.146;2023-02-18T11:36:52;9.10;;;2.70;;
48733;SDS011;34530;52.084;5.146;2023-02-18T11:39:20;8.38;;;3.00;;
48733;SDS011;34530;52.084;5.146;2023-02-18T11:44:31;12.93;;;3.33;;
48733;SDS011;34530;52.084;5.146;2023-02-18T11:47:04;11.48;;;3.05;;
48733;SDS011;34530;52.084;5.146;2023-02-18T11:49:36;12.75;;;2.85;;
48733;SDS011;34530;52.084;5.146;2023-02-18T11:52:18;10.18;;;3.25;;
48733;SDS011;34530;52.084;5.146;2023-02-18T11:57:56;14.27;;;3.10;;
48733;SDS011;34530;52.084;5.146;2023-02-18T12:03:04;14.00;;;3.47;;
48733;SDS011;34530;52.084;5.146;2023-02-18T12:06:03;13.35;;;3.33;;
48733;SDS011;34530;52.084;5.146;2023-02-18T12:08:46;10.10;;;3.35;;
48733;SDS011;34530;52.084;5.146;2023-02-18T12:11:28;11.32;;;2.90;;
48733;SDS011;34530;52.084;5.146;2023-02-18T12:13:58;10.05;;;2.97;;
48733;SDS011;34530;52.084;5.146;2023-02-18T12:16:29;11.60;;;3.85;;
48733;SDS011;34530;52.084;5.146;2023-02-18T12:19:14;12.10;;;3.38;;
48733;SDS011;34530;52.084;5.146;2023-02-18T12:32:42;11.85;;;3.30;;
48733;SDS011;34530;52.084;5.146;2023-02-18T12:38:33;11.77;;;3.42;;
48733;SDS011;34530;52.084;5.146;2023-02-18T12:44:03;7.20;;;3.13;;
48733;SDS011;34530;52.084;5.146;2023-02-18T12:58:42;14.18;;;3.90;;
48733;SDS011;34530;52.084;5.146;2023-02-18T13:12:06;11.10;;;3.58;;
48733;SDS011;34530;52.084;5.146;2023-02-18T13:14:46;10.50;;;3.47;;
48733;SDS011;34530;52.084;5.146;2023-02-18T13:17:16;13.20;;;2.88;;
48733;SDS011;34530;52.084;5.146;2023-02-18T13:19:46;9.32;;;2.58;;
48733;SDS011;34530;52.084;5.146;2023-02-18T13:22:17;9.35;;;3.00;;
48733;SDS011;34530;52.084;5.146;2023-02-18T13:24:47;8.32;;;2.38;;
48733;SDS011;34530;52.084;5.146;2023-02-18T13:27:15;8.32;;;2.90;;
48733;SDS011;34530;52.084;5.146;2023-02-18T13:30:19;11.27;;;3.42;;
48733;SDS011;34530;52.084;5.146;2023-02-18T13:32:57;10.68;;;3.08;;
48733;SDS011;34530;52.084;5.146;2023-02-18T13:35:39;11.77;;;2.83;;
48733;SDS011;34530;52.084;5.146;2023-02-18T13:38:16;10.15;;;2.78;;
48733;SDS011;34530;52.084;5.146;2023-02-18T13:40:55;8.27;;;2.58;;
48733;SDS011;34530;52.084;5.146;2023-02-18T13:48:33;9.73;;;2.80;;
48733;SDS011;34530;52.084;5.146;2023-02-18T13:51:11;10.63;;;2.22;;
48733;SDS011;34530;52.084;5.146;2023-02-18T13:53:39;8.38;;;2.33;;
48733;SDS011;34530;52.084;5.146;2023-02-18T13:56:27;10.38;;;2.95;;
48733;SDS011;34530;52.084;5.146;2023-02-18T14:01:44;8.23;;;2.22;;
48733;SDS011;34530;52.084;5.146;2023-02-18T14:09:49;9.77;;;2.88;;
48733;SDS011;34530;52.084;5.146;2023-02-18T14:25:42;9.38;;;2.30;;
48733;SDS011;34530;52.084;5.146;2023-02-18T14:33:46;9.65;;;3.15;;
48733;SDS011;34530;52.084;5.146;2023-02-18T14:38:53;9.10;;;2.95;;
48733;SDS011;34530;52.084;5.146;2023-02-18T14:46:38;6.57;;;2.17;;
48733;SDS011;34530;52.084;5.146;2023-02-18T14:52:04;9.43;;;2.45;;
48733;SDS011;34530;52.084;5.146;2023-02-18T14:54:34;7.65;;;2.80;;
48733;SDS011;34530;52.084;5.146;2023-02-18T14:57:05;7.55;;;2.50;;
48733;SDS011;34530;52.084;5.146;2023-02-18T14:59:39;5.43;;;2.13;;
48733;SDS011;34530;52.084;5.146;2023-02-18T15:02:22;6.53;;;2.30;;
48733;SDS011;34530;52.084;5.146;2023-02-18T15:04:57;9.10;;;2.70;;
48733;SDS011;34530;52.084;5.146;2023-02-18T15:07:53;8.77;;;2.80;;
48733;SDS011;34530;52.084;5.146;2023-02-18T15:10:19;7.97;;;1.98;;
48733;SDS011;34530;52.084;5.146;2023-02-18T15:12:44;9.38;;;2.60;;
48733;SDS011;34530;52.084;5.146;2023-02-18T15:15:12;7.47;;;2.70;;
48733;SDS011;34530;52.084;5.146;2023-02-18T15:17:43;8.88;;;2.63;;
48733;SDS011;34530;52.084;5.146;2023-02-18T15:20:11;6.03;;;2.17;;
48733;SDS011;34530;52.084;5.146;2023-02-18T15:22:38;7.15;;;2.15;;
48733;SDS011;34530;52.084;5.146;2023-02-18T15:25:04;9.18;;;2.35;;
48733;SDS011;34530;52.084;5.146;2023-02-18T15:27:31;7.60;;;2.28;;
48733;SDS011;34530;52.084;5.146;2023-02-18T15:32:58;7.72;;;2.72;;
48733;SDS011;34530;52.084;5.146;2023-02-18T15:35:26;7.75;;;2.33;;
48733;SDS011;34530;52.084;5.146;2023-02-18T15:37:54;7.03;;;2.28;;
48733;SDS011;34530;52.084;5.146;2023-02-18T15:40:21;7.05;;;2.42;;
48733;SDS011;34530;52.084;5.146;2023-02-18T15:42:50;10.52;;;2.75;;
48733;SDS011;34530;52.084;5.146;2023-02-18T15:47:48;7.30;;;2.30;;
48733;SDS011;34530;52.084;5.146;2023-02-18T15:50:20;7.55;;;2.20;;
48733;SDS011;34530;52.084;5.146;2023-02-18T15:52:56;11.60;;;2.53;;
48733;SDS011;34530;52.084;5.146;2023-02-18T15:55:31;11.35;;;2.85;;
48733;SDS011;34530;52.084;5.146;2023-02-18T15:57:59;11.07;;;2.75;;
48733;SDS011;34530;52.084;5.146;2023-02-18T16:00:32;10.18;;;2.40;;
48733;SDS011;34530;52.084;5.146;2023-02-18T16:05:46;8.85;;;2.63;;
48733;SDS011;34530;52.084;5.146;2023-02-18T16:08:14;9.35;;;2.63;;
48733;SDS011;34530;52.084;5.146;2023-02-18T16:13:17;8.75;;;2.70;;
48733;SDS011;34530;52.084;5.146;2023-02-18T16:15:44;8.13;;;2.28;;
48733;SDS011;34530;52.084;5.146;2023-02-18T16:21:51;7.65;;;2.70;;
48733;SDS011;34530;52.084;5.146;2023-02-18T16:24:02;6.43;;;2.47;;
48733;SDS011;34530;52.084;5.146;2023-02-18T16:26:49;10.10;;;3.05;;
48733;SDS011;34530;52.084;5.146;2023-02-18T16:29:22;9.10;;;2.67;;
48733;SDS011;34530;52.084;5.146;2023-02-18T16:31:50;11.27;;;2.70;;
48733;SDS011;34530;52.084;5.146;2023-02-18T16:34:16;9.32;;;2.80;;
48733;SDS011;34530;52.084;5.146;2023-02-18T16:36:42;8.73;;;2.55;;
48733;SDS011;34530;52.084;5.146;2023-02-18T16:39:33;8.13;;;2.63;;
48733;SDS011;34530;52.084;5.146;2023-02-18T16:41:59;10.18;;;2.30;;
48733;SDS011;34530;52.084;5.146;2023-02-18T16:44:25;9.48;;;2.92;;
48733;SDS011;34530;52.084;5.146;2023-02-18T16:46:50;9.25;;;3.63;;
48733;SDS011;34530;52.084;5.146;2023-02-18T16:49:16;8.95;;;2.90;;
48733;SDS011;34530;52.084;5.146;2023-02-18T16:51:42;7.95;;;2.25;;
48733;SDS011;34530;52.084;5.146;2023-02-18T16:54:12;7.05;;;2.38;;
48733;SDS011;34530;52.084;5.146;2023-02-18T16:56:38;10.65;;;3.03;;
48733;SDS011;34530;52.084;5.146;2023-02-18T16:59:04;6.47;;;2.40;;
48733;SDS011;34530;52.084;5.146;2023-02-18T17:01:34;12.82;;;2.90;;
48733;SDS011;34530;52.084;5.146;2023-02-18T17:04:02;16.65;;;3.85;;
48733;SDS011;34530;52.084;5.146;2023-02-18T17:06:30;6.75;;;2.70;;
48733;SDS011;34530;52.084;5.146;2023-02-18T17:08:56;6.70;;;2.70;;
48733;SDS011;34530;52.084;5.146;2023-02-18T17:11:24;9.73;;;2.65;;
48733;SDS011;34530;52.084;5.146;2023-02-18T17:13:54;11.10;;;3.13;;
48733;SDS011;34530;52.084;5.146;2023-02-18T17:16:24;10.13;;;3.05;;
48733;SDS011;34530;52.084;5.146;2023-02-18T17:18:50;12.95;;;3.45;;
48733;SDS011;34530;52.084;5.146;2023-02-18T17:21:19;9.88;;;2.95;;
48733;SDS011;34530;52.084;5.146;2023-02-18T17:23:46;10.02;;;2.85;;
48733;SDS011;34530;52.084;5.146;2023-02-18T17:26:14;9.77;;;2.40;;
48733;SDS011;34530;52.084;5.146;2023-02-18T17:28:40;6.20;;;2.60;;
48733;SDS011;34530;52.084;5.146;2023-02-18T17:31:07;6.10;;;2.30;;
48733;SDS011;34530;52.084;5.146;2023-02-18T17:33:44;13.13;;;2.60;;
48733;SDS011;34530;52.084;5.146;2023-02-18T17:36:11;12.88;;;3.17;;
48733;SDS011;34530;52.084;5.146;2023-02-18T17:38:37;9.73;;;3.05;;